SBOSBO MLA / LMML
Speedbird OnlineSpeedbird Online MLA / LMML

Malta International Airport
00:34 15°C

Location Malta, Malta
Latitude: 35.857498
Longitude: 14.4775
Local Time 00:34 on 28 Feb 2024
UTC +1 hours (Europe/Malta)
Currency £1 equals EUR 1.17
METAR LMML 272315Z 14014KT CAVOK 15/12 Q1007 NOSIG
TAF TAF LMML 271700Z 2718/2818 14015KT CAVOK BECMG 2800/2803 13020G30KT BECMG 2809/2812 24010KT
Weather As Of 28 Feb 2024 00:34
Description Clear sky
Wind 26 km/h from South-East (140°)
Cloud Cover 0%
Precipitation Rain: none, Snow: none
Sunrise 06:34
Sunset 17:55
NOTAM 45 active NOTAM
Rotations During the last 90 days there were
73 flights from LGW
73 flights to LGW
Lounges La Valette Club , Main Terminal
Web Airport Website | Wikipedia
Codes IATA: MLA
ICAO: LMML
Altitude 91 Meter / 300 Feet
Distance 2,079 KM / 1,292 Miles
from London.
Runways
RunwayLength (m)Surface
052377Asphalt
133544Asphalt
232377Asphalt
313544Asphalt
Radio
TypeDescriptionFrequency
APPAPP128.15
Distance Radar130.975
GroundGround121.6
Leaving123.625
RunwayRunway138.1
Volmet126.8
WeatherWX127.4
Live ATC



Support Speedbird Online

© 2017-2024 Speedbird Online